sensor_id;sensor_type;location;lat;lon;timestamp;P1;durP1;ratioP1;P2;durP2;ratioP2
50689;SDS011;54375;48.298;11.238;2023-05-07T00:14:33;5.18;;;3.75;;
50689;SDS011;54375;48.298;11.238;2023-05-07T00:29:35;8.73;;;5.00;;
50689;SDS011;54375;48.298;11.238;2023-05-07T00:44:38;4.88;;;3.75;;
50689;SDS011;54375;48.298;11.238;2023-05-07T00:59:40;4.60;;;3.50;;
50689;SDS011;54375;48.298;11.238;2023-05-07T01:14:43;6.13;;;4.22;;
50689;SDS011;54375;48.298;11.238;2023-05-07T01:29:46;5.88;;;3.95;;
50689;SDS011;54375;48.298;11.238;2023-05-07T01:44:48;5.80;;;3.72;;
50689;SDS011;54375;48.298;11.238;2023-05-07T01:59:50;6.30;;;4.85;;
50689;SDS011;54375;48.298;11.238;2023-05-07T02:14:53;8.80;;;5.30;;
50689;SDS011;54375;48.298;11.238;2023-05-07T02:29:56;5.93;;;4.07;;
50689;SDS011;54375;48.298;11.238;2023-05-07T02:44:58;6.28;;;3.63;;
50689;SDS011;54375;48.298;11.238;2023-05-07T03:00:06;6.07;;;4.00;;
50689;SDS011;54375;48.298;11.238;2023-05-07T03:15:12;5.95;;;4.05;;
50689;SDS011;54375;48.298;11.238;2023-05-07T03:30:15;5.88;;;4.22;;
50689;SDS011;54375;48.298;11.238;2023-05-07T03:45:17;5.95;;;4.32;;
50689;SDS011;54375;48.298;11.238;2023-05-07T04:00:20;8.32;;;5.75;;
50689;SDS011;54375;48.298;11.238;2023-05-07T04:15:24;6.03;;;4.57;;
50689;SDS011;54375;48.298;11.238;2023-05-07T04:30:27;12.57;;;9.93;;
50689;SDS011;54375;48.298;11.238;2023-05-07T04:45:29;8.82;;;5.30;;
50689;SDS011;54375;48.298;11.238;2023-05-07T05:00:32;7.63;;;5.63;;
50689;SDS011;54375;48.298;11.238;2023-05-07T05:15:34;13.27;;;9.13;;
50689;SDS011;54375;48.298;11.238;2023-05-07T05:30:37;11.93;;;8.30;;
50689;SDS011;54375;48.298;11.238;2023-05-07T05:45:40;13.77;;;9.55;;
50689;SDS011;54375;48.298;11.238;2023-05-07T06:00:43;13.55;;;10.73;;
50689;SDS011;54375;48.298;11.238;2023-05-07T06:15:46;17.23;;;12.77;;
50689;SDS011;54375;48.298;11.238;2023-05-07T06:30:48;13.00;;;9.02;;
50689;SDS011;54375;48.298;11.238;2023-05-07T06:45:50;9.90;;;7.80;;
50689;SDS011;54375;48.298;11.238;2023-05-07T07:00:52;9.70;;;7.47;;
50689;SDS011;54375;48.298;11.238;2023-05-07T07:15:54;9.27;;;7.28;;
50689;SDS011;54375;48.298;11.238;2023-05-07T07:30:56;8.18;;;6.70;;
50689;SDS011;54375;48.298;11.238;2023-05-07T07:45:59;8.38;;;5.88;;
50689;SDS011;54375;48.298;11.238;2023-05-07T08:01:01;8.68;;;6.47;;
50689;SDS011;54375;48.298;11.238;2023-05-07T08:16:05;8.32;;;5.80;;
50689;SDS011;54375;48.298;11.238;2023-05-07T08:31:07;7.20;;;4.82;;
50689;SDS011;54375;48.298;11.238;2023-05-07T08:46:09;7.43;;;4.90;;
50689;SDS011;54375;48.298;11.238;2023-05-07T09:01:14;7.57;;;4.40;;
50689;SDS011;54375;48.298;11.238;2023-05-07T09:16:17;4.63;;;3.05;;
50689;SDS011;54375;48.298;11.238;2023-05-07T09:31:22;9.75;;;5.22;;
50689;SDS011;54375;48.298;11.238;2023-05-07T09:46:25;8.20;;;4.00;;
50689;SDS011;54375;48.298;11.238;2023-05-07T10:01:31;5.97;;;3.40;;
50689;SDS011;54375;48.298;11.238;2023-05-07T10:16:37;4.78;;;3.30;;
50689;SDS011;54375;48.298;11.238;2023-05-07T10:31:43;4.93;;;2.63;;
50689;SDS011;54375;48.298;11.238;2023-05-07T10:47:04;4.60;;;3.10;;
50689;SDS011;54375;48.298;11.238;2023-05-07T11:02:07;5.00;;;2.60;;
50689;SDS011;54375;48.298;11.238;2023-05-07T11:17:10;2.93;;;1.80;;
50689;SDS011;54375;48.298;11.238;2023-05-07T11:32:13;3.93;;;1.73;;
50689;SDS011;54375;48.298;11.238;2023-05-07T11:47:18;3.67;;;1.83;;
50689;SDS011;54375;48.298;11.238;2023-05-07T12:02:20;3.03;;;2.10;;
50689;SDS011;54375;48.298;11.238;2023-05-07T12:17:23;3.10;;;1.80;;
50689;SDS011;54375;48.298;11.238;2023-05-07T12:32:26;5.50;;;1.90;;
50689;SDS011;54375;48.298;11.238;2023-05-07T12:47:28;4.70;;;2.30;;
50689;SDS011;54375;48.298;11.238;2023-05-07T13:02:33;6.27;;;2.47;;
50689;SDS011;54375;48.298;11.238;2023-05-07T13:17:35;5.63;;;2.97;;
50689;SDS011;54375;48.298;11.238;2023-05-07T13:32:38;3.53;;;2.53;;
50689;SDS011;54375;48.298;11.238;2023-05-07T13:47:40;4.33;;;2.90;;
50689;SDS011;54375;48.298;11.238;2023-05-07T14:02:43;4.43;;;2.90;;
50689;SDS011;54375;48.298;11.238;2023-05-07T14:17:45;3.03;;;2.43;;
50689;SDS011;54375;48.298;11.238;2023-05-07T14:32:48;4.00;;;2.47;;
50689;SDS011;54375;48.298;11.238;2023-05-07T14:47:50;3.60;;;2.38;;
50689;SDS011;54375;48.298;11.238;2023-05-07T15:02:53;5.20;;;2.10;;
50689;SDS011;54375;48.298;11.238;2023-05-07T15:17:58;3.97;;;2.20;;
50689;SDS011;54375;48.298;11.238;2023-05-07T15:33:00;4.32;;;2.53;;
50689;SDS011;54375;48.298;11.238;2023-05-07T15:48:04;3.13;;;1.85;;
50689;SDS011;54375;48.298;11.238;2023-05-07T16:03:07;3.90;;;2.80;;
50689;SDS011;54375;48.298;11.238;2023-05-07T16:18:09;3.90;;;2.30;;
50689;SDS011;54375;48.298;11.238;2023-05-07T16:33:12;5.47;;;3.00;;
50689;SDS011;54375;48.298;11.238;2023-05-07T16:48:14;3.33;;;2.13;;
50689;SDS011;54375;48.298;11.238;2023-05-07T17:03:16;3.35;;;1.98;;
50689;SDS011;54375;48.298;11.238;2023-05-07T17:18:19;4.85;;;2.20;;
50689;SDS011;54375;48.298;11.238;2023-05-07T17:33:21;3.85;;;2.40;;
50689;SDS011;54375;48.298;11.238;2023-05-07T17:48:24;3.30;;;2.05;;
50689;SDS011;54375;48.298;11.238;2023-05-07T18:03:26;6.47;;;2.63;;
50689;SDS011;54375;48.298;11.238;2023-05-07T18:18:28;5.20;;;3.13;;
50689;SDS011;54375;48.298;11.238;2023-05-07T18:33:30;4.13;;;2.75;;
50689;SDS011;54375;48.298;11.238;2023-05-07T18:48:32;7.28;;;2.90;;
50689;SDS011;54375;48.298;11.238;2023-05-07T19:03:34;5.30;;;3.10;;
50689;SDS011;54375;48.298;11.238;2023-05-07T19:18:37;5.47;;;4.10;;
50689;SDS011;54375;48.298;11.238;2023-05-07T19:33:39;7.07;;;5.07;;
50689;SDS011;54375;48.298;11.238;2023-05-07T19:48:41;8.45;;;4.57;;
50689;SDS011;54375;48.298;11.238;2023-05-07T20:03:44;8.18;;;4.95;;
50689;SDS011;54375;48.298;11.238;2023-05-07T20:18:46;8.23;;;5.50;;
50689;SDS011;54375;48.298;11.238;2023-05-07T20:33:48;8.05;;;5.18;;
50689;SDS011;54375;48.298;11.238;2023-05-07T20:48:50;9.05;;;6.07;;
50689;SDS011;54375;48.298;11.238;2023-05-07T21:03:52;9.77;;;6.38;;
50689;SDS011;54375;48.298;11.238;2023-05-07T21:18:55;7.65;;;5.88;;
50689;SDS011;54375;48.298;11.238;2023-05-07T21:33:57;8.25;;;5.95;;
50689;SDS011;54375;48.298;11.238;2023-05-07T21:49:00;8.93;;;6.03;;
50689;SDS011;54375;48.298;11.238;2023-05-07T22:04:02;7.95;;;6.47;;
50689;SDS011;54375;48.298;11.238;2023-05-07T22:19:05;9.27;;;5.88;;
50689;SDS011;54375;48.298;11.238;2023-05-07T22:34:07;10.68;;;6.00;;
50689;SDS011;54375;48.298;11.238;2023-05-07T22:49:10;7.68;;;5.97;;
50689;SDS011;54375;48.298;11.238;2023-05-07T23:04:12;8.30;;;6.00;;
50689;SDS011;54375;48.298;11.238;2023-05-07T23:19:14;11.05;;;7.43;;
50689;SDS011;54375;48.298;11.238;2023-05-07T23:34:16;9.27;;;7.80;;
50689;SDS011;54375;48.298;11.238;2023-05-07T23:49:19;10.30;;;7.30;;
